• Join FlightAware (Why Join?)
  • Login
  • US Flag 
12:43PM EST


 

Airport Tracker/Info


-or-


 

Live Flight TrackerFlight Track Log ✈ KAP528 ✈ 30-Apr-2013 ✈ KBOS - KBOS

Flight Track Log - Related Links

Times and Time Zones

All times are in EDT time to prevent confusion due to time zone crossing. See the KAP528 flight status page for this flight to view local times or setup timezone preferences in your user account.

Time Position Orientation Groundspeed Altitude Reporting Facility
EDT Latitude Longitude Course Direction KTS MPH feet Rate Location/Type
01:12PM 42.3630 -71.0064 North  Level Estimated
01:13PM 42.3630 -71.0064 48° Northeast  Level Estimated
01:14PM 42.3630 -71.0064 48° Northeast  Level Estimated
01:15PM 42.3630 -71.0064 48° Northeast  Level Estimated
01:16PM 42.3630 -71.0064 48° Northeast  Level Estimated
01:17PM 42.3630 -71.0064 48° Northeast  Level Estimated
01:18PM 42.3630 -71.0064 48° Northeast  Level Estimated
01:19PM 42.3630 -71.0064 48° Northeast  Level Estimated
01:20PM 42.3630 -71.0064 48° Northeast  Level Estimated
01:21PM 42.3630 -71.0064 48° Northeast  Level Estimated
01:22PM 42.3630 -71.0064 48° Northeast  Level Estimated
01:23PM 42.3630 -71.0064 48° Northeast  Level Estimated
01:24PM 42.3630 -71.0064 48° Northeast  Level Estimated
01:25PM 42.3630 -71.0064 48° Northeast  Level Estimated
01:26PM 42.3630 -71.0064 48° Northeast  Level Estimated
01:27PM 42.3630 -71.0064 48° Northeast  Level Estimated
01:28PM 42.3630 -71.0064 48° Northeast  Level Estimated
01:29PM 42.3630 -71.0064 48° Northeast  Level Estimated
01:30PM 42.3630 -71.0064 48° Northeast  Level Estimated
01:31PM 42.3630 -71.0064 48° Northeast  Level Estimated
01:32PM 42.3630 -71.0064 48° Northeast  Level Estimated
01:33PM 42.3630 -71.0064 48° Northeast  Level Estimated
01:34PM 42.3630 -71.0064 48° Northeast  Level Estimated
01:35PM 42.3630 -71.0064 48° Northeast  Level Estimated
01:36PM 42.3630 -71.0064 48° Northeast  Level Estimated
01:37PM 42.3630 -71.0064 48° Northeast  Level Estimated
01:38PM 42.3630 -71.0064 48° Northeast  Level Estimated
01:39PM 42.3630 -71.0064 48° Northeast  Level Estimated
01:40PM 42.3630 -71.0064 48° Northeast  Level Estimated
01:41PM 42.3630 -71.0064 48° Northeast  Level Estimated
01:42PM 42.3630 -71.0064 48° Northeast  Level Estimated
01:43PM 42.3630 -71.0064 48° Northeast  Level Estimated
01:44PM 42.3630 -71.0064 48° Northeast  Level Estimated
01:45PM 42.3630 -71.0064 48° Northeast  Level Estimated
01:46PM 42.3630 -71.0064 48° Northeast  Level Estimated
01:47PM 42.3630 -71.0064 48° Northeast  Level Estimated
01:48PM 42.3630 -71.0064 48° Northeast  Level Estimated
01:49PM 42.3630 -71.0064 48° Northeast  Level Estimated
01:49PM 42.3667 -70.9833 48° Northeast 124 143 500  Level KA90
01:50PM 42.3630 -71.0064 48° Northeast  Level Estimated
01:50PM 42.3500 -70.9500 124° Southeast 135 155 1,000  Level KA90
01:51PM 42.3630 -71.0064 48° Northeast  Level Estimated
01:51PM 42.3167 -70.9000 132° Southeast 153 176 1,100  Level KA90
01:52PM 42.3630 -71.0064 48° Northeast  Level Estimated
01:52PM 42.3000 -70.8500 114° Southeast 148 170 1,000  Level KA90
01:53PM 42.3630 -71.0064 48° Northeast  Level Estimated
01:54PM 42.3630 -71.0064 48° Northeast  Level Estimated
01:54PM 42.2863 -70.8148 118° Southeast  Level FlightAware Approximate
02:01PM 42.2168 -70.6372 118° Southeast  Level FlightAware Approximate
02:02PM 42.2068 -70.6118 118° Southeast  Level FlightAware Approximate
02:03PM 42.1968 -70.5865 118° Southeast  Level FlightAware Approximate
02:04PM 42.1869 -70.5612 118° Southeast  Level FlightAware Approximate
02:05PM 42.1769 -70.5359 118° Southeast  Level FlightAware Approximate
02:06PM 42.1669 -70.5105 118° Southeast  Level FlightAware Approximate
02:07PM 42.1570 -70.4852 118° Southeast  Level FlightAware Approximate
02:08PM 42.1470 -70.4599 118° Southeast  Level FlightAware Approximate
02:09PM 42.1370 -70.4346 118° Southeast  Level FlightAware Approximate
02:10PM 42.1470 -70.4599 112° Southeast  Level Estimated
02:11PM 42.1384 -70.4337 114° Southeast  Level FlightAware Approximate
02:12PM 42.1298 -70.4075 114° Southeast  Level FlightAware Approximate
02:13PM 42.1212 -70.3813 114° Southeast  Level FlightAware Approximate
02:14PM 42.1125 -70.3551 114° Southeast  Level FlightAware Approximate
02:15PM 42.1039 -70.3290 114° Southeast  Level FlightAware Approximate
02:16PM 42.1137 -70.3544 292° West  Level Estimated
02:17PM 42.1166 -70.3828 278° West  Level FlightAware Approximate
02:18PM 42.1194 -70.4112 277° West  Level FlightAware Approximate
02:19PM 42.1166 -70.3828 97° East  Level FlightAware Approximate
02:20PM 42.1194 -70.4112 278° West  Level FlightAware Approximate
02:21PM 42.1166 -70.3828 98° East  Level FlightAware Approximate
02:22PM 42.1194 -70.4112 278° West  Level FlightAware Approximate
02:23PM 42.1253 -70.4033 300° West  Level FlightAware Approximate
02:24PM 42.1359 -70.4281 300° West  Level FlightAware Approximate
02:25PM 42.1466 -70.4529 300° West  Level FlightAware Approximate
02:26PM 42.1573 -70.4777 300° West  Level FlightAware Approximate
02:27PM 42.1679 -70.5025 300° West  Level FlightAware Approximate
02:28PM 42.1786 -70.5273 300° West  Level FlightAware Approximate
02:29PM 42.1892 -70.5521 300° West  Level FlightAware Approximate
02:30PM 42.1998 -70.5769 300° West  Level FlightAware Approximate
02:31PM 42.2105 -70.6018 300° West  Level FlightAware Approximate
02:32PM 42.2211 -70.6266 300° West  Level FlightAware Approximate
02:33PM 42.2317 -70.6515 300° West  Level FlightAware Approximate